sensor_id;sensor_type;location;lat;lon;timestamp;temperature;humidity
20487;DHT22;10402;49.012;8.370;2023-04-01T00:01:32;11.80;82.40
20487;DHT22;10402;49.012;8.370;2023-04-01T00:03:58;11.80;82.30
20487;DHT22;10402;49.012;8.370;2023-04-01T00:06:24;11.80;82.40
20487;DHT22;10402;49.012;8.370;2023-04-01T00:08:50;11.80;82.40
20487;DHT22;10402;49.012;8.370;2023-04-01T00:11:16;11.80;82.30
20487;DHT22;10402;49.012;8.370;2023-04-01T00:13:42;11.80;82.20
20487;DHT22;10402;49.012;8.370;2023-04-01T00:16:08;11.80;82.30
20487;DHT22;10402;49.012;8.370;2023-04-01T00:18:34;11.70;82.20
20487;DHT22;10402;49.012;8.370;2023-04-01T00:20:59;11.80;82.40
20487;DHT22;10402;49.012;8.370;2023-04-01T00:23:25;11.70;82.30
20487;DHT22;10402;49.012;8.370;2023-04-01T00:25:51;11.70;82.30
20487;DHT22;10402;49.012;8.370;2023-04-01T00:28:18;11.70;82.30
20487;DHT22;10402;49.012;8.370;2023-04-01T00:30:45;11.80;82.50
20487;DHT22;10402;49.012;8.370;2023-04-01T00:33:11;11.80;82.50
20487;DHT22;10402;49.012;8.370;2023-04-01T00:35:36;11.80;82.50
20487;DHT22;10402;49.012;8.370;2023-04-01T00:38:03;11.80;83.10
20487;DHT22;10402;49.012;8.370;2023-04-01T00:40:39;11.80;82.40
20487;DHT22;10402;49.012;8.370;2023-04-01T00:43:18;11.70;82.30
20487;DHT22;10402;49.012;8.370;2023-04-01T00:45:46;11.70;82.40
20487;DHT22;10402;49.012;8.370;2023-04-01T00:48:24;11.70;82.50
20487;DHT22;10402;49.012;8.370;2023-04-01T00:50:59;11.70;82.40
20487;DHT22;10402;49.012;8.370;2023-04-01T00:53:26;11.70;82.40
20487;DHT22;10402;49.012;8.370;2023-04-01T00:56:14;11.70;82.30
20487;DHT22;10402;49.012;8.370;2023-04-01T00:58:44;11.80;82.40
20487;DHT22;10402;49.012;8.370;2023-04-01T01:01:11;11.80;82.50
20487;DHT22;10402;49.012;8.370;2023-04-01T01:03:37;11.70;82.30
20487;DHT22;10402;49.012;8.370;2023-04-01T01:06:32;11.70;82.50
20487;DHT22;10402;49.012;8.370;2023-04-01T01:12:21;11.80;82.50
20487;DHT22;10402;49.012;8.370;2023-04-01T01:15:06;11.80;82.40
20487;DHT22;10402;49.012;8.370;2023-04-01T01:25:39;11.80;82.20
20487;DHT22;10402;49.012;8.370;2023-04-01T01:34:40;11.80;82.50
20487;DHT22;10402;49.012;8.370;2023-04-01T01:36:34;11.80;82.50
20487;DHT22;10402;49.012;8.370;2023-04-01T01:39:03;11.80;82.40
20487;DHT22;10402;49.012;8.370;2023-04-01T01:41:31;11.80;82.40
20487;DHT22;10402;49.012;8.370;2023-04-01T01:43:59;11.80;82.60
20487;DHT22;10402;49.012;8.370;2023-04-01T01:46:27;11.70;82.50
20487;DHT22;10402;49.012;8.370;2023-04-01T01:48:55;11.60;82.90
20487;DHT22;10402;49.012;8.370;2023-04-01T01:51:22;11.60;82.90
20487;DHT22;10402;49.012;8.370;2023-04-01T01:53:48;11.60;83.10
20487;DHT22;10402;49.012;8.370;2023-04-01T01:56:13;11.50;83.10
20487;DHT22;10402;49.012;8.370;2023-04-01T01:58:44;11.50;83.20
20487;DHT22;10402;49.012;8.370;2023-04-01T02:01:14;11.50;83.40
20487;DHT22;10402;49.012;8.370;2023-04-01T02:03:42;11.50;83.40
20487;DHT22;10402;49.012;8.370;2023-04-01T02:06:14;11.60;83.30
20487;DHT22;10402;49.012;8.370;2023-04-01T02:08:45;11.50;83.10
20487;DHT22;10402;49.012;8.370;2023-04-01T02:11:15;11.50;83.20
20487;DHT22;10402;49.012;8.370;2023-04-01T02:16:33;11.40;83.20
20487;DHT22;10402;49.012;8.370;2023-04-01T02:19:01;11.40;83.30
20487;DHT22;10402;49.012;8.370;2023-04-01T02:21:30;11.40;83.30
20487;DHT22;10402;49.012;8.370;2023-04-01T02:23:57;11.40;83.20
20487;DHT22;10402;49.012;8.370;2023-04-01T02:26:25;11.40;83.10
20487;DHT22;10402;49.012;8.370;2023-04-01T02:28:52;11.30;83.00
20487;DHT22;10402;49.012;8.370;2023-04-01T02:31:19;11.30;82.80
20487;DHT22;10402;49.012;8.370;2023-04-01T02:33:45;11.30;82.90
20487;DHT22;10402;49.012;8.370;2023-04-01T02:36:15;11.30;82.90
20487;DHT22;10402;49.012;8.370;2023-04-01T02:38:43;11.30;82.80
20487;DHT22;10402;49.012;8.370;2023-04-01T02:41:10;11.30;82.80
20487;DHT22;10402;49.012;8.370;2023-04-01T02:43:35;11.30;82.60
20487;DHT22;10402;49.012;8.370;2023-04-01T02:46:01;11.30;82.60
20487;DHT22;10402;49.012;8.370;2023-04-01T02:48:27;11.20;82.60
20487;DHT22;10402;49.012;8.370;2023-04-01T02:50:53;11.20;82.40
20487;DHT22;10402;49.012;8.370;2023-04-01T02:53:18;11.20;82.50
20487;DHT22;10402;49.012;8.370;2023-04-01T02:55:44;11.20;82.40
20487;DHT22;10402;49.012;8.370;2023-04-01T02:58:10;11.20;82.50
20487;DHT22;10402;49.012;8.370;2023-04-01T03:00:36;11.20;82.40
20487;DHT22;10402;49.012;8.370;2023-04-01T03:03:01;11.20;82.40
20487;DHT22;10402;49.012;8.370;2023-04-01T03:05:28;11.20;82.40
20487;DHT22;10402;49.012;8.370;2023-04-01T03:07:53;11.20;82.40
20487;DHT22;10402;49.012;8.370;2023-04-01T03:10:20;11.20;82.20
20487;DHT22;10402;49.012;8.370;2023-04-01T03:12:45;11.20;82.90
20487;DHT22;10402;49.012;8.370;2023-04-01T03:15:12;11.20;82.30
20487;DHT22;10402;49.012;8.370;2023-04-01T03:17:39;11.20;82.20
20487;DHT22;10402;49.012;8.370;2023-04-01T03:20:06;11.10;82.30
20487;DHT22;10402;49.012;8.370;2023-04-01T03:22:34;11.20;82.50
20487;DHT22;10402;49.012;8.370;2023-04-01T03:25:01;11.20;82.50
20487;DHT22;10402;49.012;8.370;2023-04-01T03:27:26;11.20;82.40
20487;DHT22;10402;49.012;8.370;2023-04-01T03:29:52;11.10;82.30
20487;DHT22;10402;49.012;8.370;2023-04-01T03:32:17;11.10;82.40
20487;DHT22;10402;49.012;8.370;2023-04-01T03:34:43;11.20;82.40
20487;DHT22;10402;49.012;8.370;2023-04-01T03:37:08;11.20;82.30
20487;DHT22;10402;49.012;8.370;2023-04-01T03:39:34;11.20;82.30
20487;DHT22;10402;49.012;8.370;2023-04-01T03:42:00;11.20;82.20
20487;DHT22;10402;49.012;8.370;2023-04-01T03:44:26;11.20;82.20
20487;DHT22;10402;49.012;8.370;2023-04-01T03:46:51;11.20;82.10
20487;DHT22;10402;49.012;8.370;2023-04-01T03:49:17;11.20;82.10
20487;DHT22;10402;49.012;8.370;2023-04-01T03:51:43;11.20;82.00
20487;DHT22;10402;49.012;8.370;2023-04-01T03:54:10;11.20;81.90
20487;DHT22;10402;49.012;8.370;2023-04-01T03:56:36;11.30;82.10
20487;DHT22;10402;49.012;8.370;2023-04-01T03:59:05;11.30;81.80
20487;DHT22;10402;49.012;8.370;2023-04-01T04:01:30;11.30;81.80
20487;DHT22;10402;49.012;8.370;2023-04-01T04:03:56;11.20;81.60
20487;DHT22;10402;49.012;8.370;2023-04-01T04:06:23;11.30;81.70
20487;DHT22;10402;49.012;8.370;2023-04-01T04:08:49;11.20;81.50
20487;DHT22;10402;49.012;8.370;2023-04-01T04:11:15;11.20;81.70
20487;DHT22;10402;49.012;8.370;2023-04-01T04:13:41;11.30;81.70
20487;DHT22;10402;49.012;8.370;2023-04-01T04:16:07;11.20;81.60
20487;DHT22;10402;49.012;8.370;2023-04-01T04:18:34;11.30;81.60
20487;DHT22;10402;49.012;8.370;2023-04-01T04:20:59;11.30;81.60
20487;DHT22;10402;49.012;8.370;2023-04-01T04:23:25;11.30;81.60
20487;DHT22;10402;49.012;8.370;2023-04-01T04:25:58;11.40;81.60
20487;DHT22;10402;49.012;8.370;2023-04-01T04:28:25;11.40;81.40
20487;DHT22;10402;49.012;8.370;2023-04-01T04:30:53;11.30;81.20
20487;DHT22;10402;49.012;8.370;2023-04-01T04:33:20;11.30;81.40
20487;DHT22;10402;49.012;8.370;2023-04-01T04:35:46;11.30;81.30
20487;DHT22;10402;49.012;8.370;2023-04-01T04:38:11;11.30;81.30
20487;DHT22;10402;49.012;8.370;2023-04-01T04:40:40;11.40;81.30
20487;DHT22;10402;49.012;8.370;2023-04-01T04:43:05;11.40;81.20
20487;DHT22;10402;49.012;8.370;2023-04-01T04:45:31;11.30;81.20
20487;DHT22;10402;49.012;8.370;2023-04-01T04:47:57;11.30;81.30
20487;DHT22;10402;49.012;8.370;2023-04-01T04:50:24;11.40;81.30
20487;DHT22;10402;49.012;8.370;2023-04-01T04:52:49;11.40;81.30
20487;DHT22;10402;49.012;8.370;2023-04-01T04:55:15;11.40;81.40
20487;DHT22;10402;49.012;8.370;2023-04-01T04:57:41;11.40;81.20
20487;DHT22;10402;49.012;8.370;2023-04-01T05:00:07;11.40;81.10
20487;DHT22;10402;49.012;8.370;2023-04-01T05:02:33;11.40;81.10
20487;DHT22;10402;49.012;8.370;2023-04-01T05:04:58;11.40;81.00
20487;DHT22;10402;49.012;8.370;2023-04-01T05:07:24;11.40;81.10
20487;DHT22;10402;49.012;8.370;2023-04-01T05:09:50;11.40;81.10
20487;DHT22;10402;49.012;8.370;2023-04-01T05:12:16;11.40;81.00
20487;DHT22;10402;49.012;8.370;2023-04-01T05:14:41;11.40;81.00
20487;DHT22;10402;49.012;8.370;2023-04-01T05:17:11;11.40;81.10
20487;DHT22;10402;49.012;8.370;2023-04-01T05:19:38;11.30;81.20
20487;DHT22;10402;49.012;8.370;2023-04-01T05:22:04;11.30;81.20
20487;DHT22;10402;49.012;8.370;2023-04-01T05:24:30;11.30;81.30
20487;DHT22;10402;49.012;8.370;2023-04-01T05:26:55;11.30;81.30
20487;DHT22;10402;49.012;8.370;2023-04-01T05:29:23;11.30;81.20
20487;DHT22;10402;49.012;8.370;2023-04-01T05:31:48;11.30;81.20
20487;DHT22;10402;49.012;8.370;2023-04-01T05:34:14;11.30;81.20
20487;DHT22;10402;49.012;8.370;2023-04-01T05:36:40;11.30;81.40
20487;DHT22;10402;49.012;8.370;2023-04-01T05:39:07;11.30;81.30
20487;DHT22;10402;49.012;8.370;2023-04-01T05:41:35;11.30;81.40
20487;DHT22;10402;49.012;8.370;2023-04-01T05:44:01;11.20;81.50
20487;DHT22;10402;49.012;8.370;2023-04-01T05:46:27;11.20;81.70
20487;DHT22;10402;49.012;8.370;2023-04-01T05:48:52;11.20;81.70
20487;DHT22;10402;49.012;8.370;2023-04-01T05:51:18;11.20;81.90
20487;DHT22;10402;49.012;8.370;2023-04-01T05:53:44;11.10;81.90
20487;DHT22;10402;49.012;8.370;2023-04-01T05:56:09;11.10;82.10
20487;DHT22;10402;49.012;8.370;2023-04-01T05:58:38;11.10;82.30
20487;DHT22;10402;49.012;8.370;2023-04-01T06:01:10;11.10;82.30
20487;DHT22;10402;49.012;8.370;2023-04-01T06:03:36;11.10;82.30
20487;DHT22;10402;49.012;8.370;2023-04-01T06:06:02;11.10;82.40
20487;DHT22;10402;49.012;8.370;2023-04-01T06:08:30;11.10;82.60
20487;DHT22;10402;49.012;8.370;2023-04-01T06:13:57;11.00;83.10
20487;DHT22;10402;49.012;8.370;2023-04-01T06:25:09;10.90;83.50
20487;DHT22;10402;49.012;8.370;2023-04-01T06:41:21;10.90;84.00
20487;DHT22;10402;49.012;8.370;2023-04-01T06:46:45;11.00;84.20
20487;DHT22;10402;49.012;8.370;2023-04-01T06:54:38;11.00;84.50
20487;DHT22;10402;49.012;8.370;2023-04-01T06:57:29;11.00;84.70
20487;DHT22;10402;49.012;8.370;2023-04-01T06:59:58;11.00;84.90
20487;DHT22;10402;49.012;8.370;2023-04-01T07:02:41;11.00;85.10
20487;DHT22;10402;49.012;8.370;2023-04-01T07:05:11;11.00;85.40
20487;DHT22;10402;49.012;8.370;2023-04-01T07:07:44;11.00;85.60
20487;DHT22;10402;49.012;8.370;2023-04-01T07:10:20;11.00;85.60
20487;DHT22;10402;49.012;8.370;2023-04-01T07:12:50;11.00;85.70
20487;DHT22;10402;49.012;8.370;2023-04-01T07:15:24;11.00;85.80
20487;DHT22;10402;49.012;8.370;2023-04-01T07:18:09;11.10;86.00
20487;DHT22;10402;49.012;8.370;2023-04-01T07:20:37;11.10;86.00
20487;DHT22;10402;49.012;8.370;2023-04-01T07:23:08;11.10;86.00
20487;DHT22;10402;49.012;8.370;2023-04-01T07:25:43;11.10;86.10
20487;DHT22;10402;49.012;8.370;2023-04-01T07:28:15;11.10;86.00
20487;DHT22;10402;49.012;8.370;2023-04-01T07:36:22;11.10;86.90
20487;DHT22;10402;49.012;8.370;2023-04-01T07:39:09;11.10;87.00
20487;DHT22;10402;49.012;8.370;2023-04-01T07:47:02;11.00;87.60
20487;DHT22;10402;49.012;8.370;2023-04-01T07:49:50;11.00;88.00
20487;DHT22;10402;49.012;8.370;2023-04-01T08:00:33;10.90;88.80
20487;DHT22;10402;49.012;8.370;2023-04-01T08:05:46;10.90;89.00
20487;DHT22;10402;49.012;8.370;2023-04-01T08:08:37;11.00;89.20
20487;DHT22;10402;49.012;8.370;2023-04-01T08:14:05;11.00;89.30
20487;DHT22;10402;49.012;8.370;2023-04-01T08:16:46;11.00;89.20
20487;DHT22;10402;49.012;8.370;2023-04-01T08:22:07;11.10;89.40
20487;DHT22;10402;49.012;8.370;2023-04-01T08:24:45;11.10;89.30
20487;DHT22;10402;49.012;8.370;2023-04-01T08:27:23;11.10;89.40
20487;DHT22;10402;49.012;8.370;2023-04-01T08:30:38;11.10;89.60
20487;DHT22;10402;49.012;8.370;2023-04-01T08:32:39;11.20;89.90
20487;DHT22;10402;49.012;8.370;2023-04-01T08:37:38;11.20;89.70
20487;DHT22;10402;49.012;8.370;2023-04-01T08:55:56;11.20;90.10
20487;DHT22;10402;49.012;8.370;2023-04-01T09:01:12;11.30;90.20
20487;DHT22;10402;49.012;8.370;2023-04-01T09:03:51;11.30;90.20
20487;DHT22;10402;49.012;8.370;2023-04-01T09:06:33;11.30;90.20
20487;DHT22;10402;49.012;8.370;2023-04-01T09:12:14;11.30;90.30
20487;DHT22;10402;49.012;8.370;2023-04-01T09:23:06;11.30;90.50
20487;DHT22;10402;49.012;8.370;2023-04-01T09:25:53;11.30;90.50
20487;DHT22;10402;49.012;8.370;2023-04-01T09:34:30;11.30;90.60
20487;DHT22;10402;49.012;8.370;2023-04-01T09:42:41;11.30;90.80
20487;DHT22;10402;49.012;8.370;2023-04-01T09:45:43;11.30;90.80
20487;DHT22;10402;49.012;8.370;2023-04-01T09:48:24;11.30;90.80
20487;DHT22;10402;49.012;8.370;2023-04-01T09:53:45;11.30;90.90
20487;DHT22;10402;49.012;8.370;2023-04-01T09:59:15;11.30;90.90
20487;DHT22;10402;49.012;8.370;2023-04-01T10:07:45;11.30;91.10
20487;DHT22;10402;49.012;8.370;2023-04-01T10:13:17;11.30;91.10
20487;DHT22;10402;49.012;8.370;2023-04-01T10:16:09;11.30;91.10
20487;DHT22;10402;49.012;8.370;2023-04-01T10:27:55;11.30;91.30
20487;DHT22;10402;49.012;8.370;2023-04-01T10:42:40;11.40;91.50
20487;DHT22;10402;49.012;8.370;2023-04-01T10:45:09;11.40;91.50
20487;DHT22;10402;49.012;8.370;2023-04-01T10:56:36;11.40;91.60
20487;DHT22;10402;49.012;8.370;2023-04-01T11:07:55;11.50;91.60
20487;DHT22;10402;49.012;8.370;2023-04-01T11:22:23;11.50;91.70
20487;DHT22;10402;49.012;8.370;2023-04-01T11:30:08;11.50;91.80
20487;DHT22;10402;49.012;8.370;2023-04-01T11:32:53;11.50;91.90
20487;DHT22;10402;49.012;8.370;2023-04-01T11:41:10;11.40;92.00
20487;DHT22;10402;49.012;8.370;2023-04-01T11:46:31;11.50;92.10
20487;DHT22;10402;49.012;8.370;2023-04-01T11:52:28;11.50;92.10
20487;DHT22;10402;49.012;8.370;2023-04-01T11:58:02;11.70;92.10
20487;DHT22;10402;49.012;8.370;2023-04-01T12:03:25;11.70;92.00
20487;DHT22;10402;49.012;8.370;2023-04-01T12:06:02;11.70;92.10
20487;DHT22;10402;49.012;8.370;2023-04-01T12:08:56;11.60;92.10
20487;DHT22;10402;49.012;8.370;2023-04-01T12:22:08;11.60;92.20
20487;DHT22;10402;49.012;8.370;2023-04-01T12:24:48;11.60;92.20
20487;DHT22;10402;49.012;8.370;2023-04-01T12:27:35;11.60;92.30
20487;DHT22;10402;49.012;8.370;2023-04-01T12:33:22;11.50;92.40
20487;DHT22;10402;49.012;8.370;2023-04-01T12:36:05;11.50;92.40
20487;DHT22;10402;49.012;8.370;2023-04-01T12:38:56;11.50;92.40
20487;DHT22;10402;49.012;8.370;2023-04-01T12:41:32;11.50;92.40
20487;DHT22;10402;49.012;8.370;2023-04-01T12:47:11;11.50;92.40
20487;DHT22;10402;49.012;8.370;2023-04-01T12:52:38;11.60;92.50
20487;DHT22;10402;49.012;8.370;2023-04-01T13:03:41;11.50;92.70
20487;DHT22;10402;49.012;8.370;2023-04-01T13:15:16;11.60;92.60
20487;DHT22;10402;49.012;8.370;2023-04-01T13:18:00;11.60;92.50
20487;DHT22;10402;49.012;8.370;2023-04-01T13:26:39;11.60;92.50
20487;DHT22;10402;49.012;8.370;2023-04-01T13:29:36;11.60;92.50
20487;DHT22;10402;49.012;8.370;2023-04-01T13:43:28;11.60;92.50
20487;DHT22;10402;49.012;8.370;2023-04-01T13:54:20;11.60;92.30
20487;DHT22;10402;49.012;8.370;2023-04-01T13:57:22;11.60;92.30
20487;DHT22;10402;49.012;8.370;2023-04-01T14:09:18;11.50;92.50
20487;DHT22;10402;49.012;8.370;2023-04-01T14:20:20;11.50;92.50
20487;DHT22;10402;49.012;8.370;2023-04-01T14:31:43;11.50;92.60
20487;DHT22;10402;49.012;8.370;2023-04-01T14:37:46;11.50;92.70
20487;DHT22;10402;49.012;8.370;2023-04-01T14:40:28;11.50;92.80
20487;DHT22;10402;49.012;8.370;2023-04-01T14:45:50;11.60;92.80
20487;DHT22;10402;49.012;8.370;2023-04-01T14:51:20;11.60;92.80
20487;DHT22;10402;49.012;8.370;2023-04-01T14:59:30;11.60;92.90
20487;DHT22;10402;49.012;8.370;2023-04-01T15:10:19;11.60;93.10
20487;DHT22;10402;49.012;8.370;2023-04-01T15:13:12;11.60;93.10
20487;DHT22;10402;49.012;8.370;2023-04-01T15:27:27;11.70;93.10
20487;DHT22;10402;49.012;8.370;2023-04-01T15:38:00;11.90;92.90
20487;DHT22;10402;49.012;8.370;2023-04-01T15:43:46;11.90;93.00
20487;DHT22;10402;49.012;8.370;2023-04-01T15:57:32;11.80;93.00
20487;DHT22;10402;49.012;8.370;2023-04-01T16:02:49;11.80;93.10
20487;DHT22;10402;49.012;8.370;2023-04-01T16:05:27;11.80;93.10
20487;DHT22;10402;49.012;8.370;2023-04-01T16:10:38;11.70;93.00
20487;DHT22;10402;49.012;8.370;2023-04-01T16:13:46;11.70;93.00
20487;DHT22;10402;49.012;8.370;2023-04-01T16:19:08;11.80;93.10
20487;DHT22;10402;49.012;8.370;2023-04-01T16:22:08;11.70;93.10
20487;DHT22;10402;49.012;8.370;2023-04-01T16:25:01;11.80;93.10
20487;DHT22;10402;49.012;8.370;2023-04-01T16:27:46;11.80;93.10
20487;DHT22;10402;49.012;8.370;2023-04-01T16:35:54;11.80;93.00
20487;DHT22;10402;49.012;8.370;2023-04-01T16:41:47;11.80;92.90
20487;DHT22;10402;49.012;8.370;2023-04-01T16:44:25;11.80;92.90
20487;DHT22;10402;49.012;8.370;2023-04-01T16:47:14;11.80;92.90
20487;DHT22;10402;49.012;8.370;2023-04-01T16:49:59;11.90;92.90
20487;DHT22;10402;49.012;8.370;2023-04-01T16:52:40;11.80;92.90
20487;DHT22;10402;49.012;8.370;2023-04-01T16:55:20;11.80;92.80
20487;DHT22;10402;49.012;8.370;2023-04-01T16:57:57;11.80;92.80
20487;DHT22;10402;49.012;8.370;2023-04-01T17:03:11;11.80;92.90
20487;DHT22;10402;49.012;8.370;2023-04-01T17:14:38;11.70;92.80
20487;DHT22;10402;49.012;8.370;2023-04-01T17:23:01;11.70;92.60
20487;DHT22;10402;49.012;8.370;2023-04-01T17:25:44;11.70;92.50
20487;DHT22;10402;49.012;8.370;2023-04-01T17:31:26;11.70;92.50
20487;DHT22;10402;49.012;8.370;2023-04-01T17:37:17;11.70;92.50
20487;DHT22;10402;49.012;8.370;2023-04-01T17:40:14;11.70;92.50
20487;DHT22;10402;49.012;8.370;2023-04-01T17:42:48;11.70;92.50
20487;DHT22;10402;49.012;8.370;2023-04-01T17:45:32;11.70;92.50
20487;DHT22;10402;49.012;8.370;2023-04-01T18:02:12;11.60;92.80
20487;DHT22;10402;49.012;8.370;2023-04-01T18:04:55;11.60;92.80
20487;DHT22;10402;49.012;8.370;2023-04-01T18:16:58;11.50;92.70
20487;DHT22;10402;49.012;8.370;2023-04-01T18:22:23;11.50;92.70
20487;DHT22;10402;49.012;8.370;2023-04-01T18:25:32;11.50;92.70
20487;DHT22;10402;49.012;8.370;2023-04-01T18:31:07;11.40;92.70
20487;DHT22;10402;49.012;8.370;2023-04-01T18:36:43;11.40;92.70
20487;DHT22;10402;49.012;8.370;2023-04-01T18:39:23;11.40;92.70
20487;DHT22;10402;49.012;8.370;2023-04-01T18:42:03;11.30;92.70
20487;DHT22;10402;49.012;8.370;2023-04-01T18:44:42;11.30;92.70
20487;DHT22;10402;49.012;8.370;2023-04-01T18:50:22;11.20;92.70
20487;DHT22;10402;49.012;8.370;2023-04-01T18:52:53;11.10;92.70
20487;DHT22;10402;49.012;8.370;2023-04-01T19:01:04;11.10;92.80
20487;DHT22;10402;49.012;8.370;2023-04-01T19:06:35;11.00;92.80
20487;DHT22;10402;49.012;8.370;2023-04-01T19:17:10;11.00;92.80
20487;DHT22;10402;49.012;8.370;2023-04-01T19:22:19;10.90;92.90
20487;DHT22;10402;49.012;8.370;2023-04-01T19:25:02;10.90;92.90
20487;DHT22;10402;49.012;8.370;2023-04-01T19:30:32;10.90;92.90
20487;DHT22;10402;49.012;8.370;2023-04-01T19:33:28;10.90;92.90
20487;DHT22;10402;49.012;8.370;2023-04-01T19:41:31;10.90;92.80
20487;DHT22;10402;49.012;8.370;2023-04-01T19:44:22;10.90;92.80
20487;DHT22;10402;49.012;8.370;2023-04-01T19:50:10;11.00;92.70
20487;DHT22;10402;49.012;8.370;2023-04-01T19:52:42;11.00;92.70
20487;DHT22;10402;49.012;8.370;2023-04-01T19:55:31;11.00;92.60
20487;DHT22;10402;49.012;8.370;2023-04-01T20:00:53;11.10;92.50
20487;DHT22;10402;49.012;8.370;2023-04-01T20:03:49;11.10;92.50
20487;DHT22;10402;49.012;8.370;2023-04-01T20:06:38;11.10;92.40
20487;DHT22;10402;49.012;8.370;2023-04-01T20:11:59;11.20;92.30
20487;DHT22;10402;49.012;8.370;2023-04-01T20:14:42;11.20;92.30
20487;DHT22;10402;49.012;8.370;2023-04-01T20:19:51;11.30;92.30
20487;DHT22;10402;49.012;8.370;2023-04-01T20:22:38;11.30;92.20
20487;DHT22;10402;49.012;8.370;2023-04-01T20:33:37;11.30;92.20
20487;DHT22;10402;49.012;8.370;2023-04-01T20:45:14;11.20;92.50
20487;DHT22;10402;49.012;8.370;2023-04-01T20:50:38;11.30;92.20
20487;DHT22;10402;49.012;8.370;2023-04-01T20:56:14;11.30;92.20
20487;DHT22;10402;49.012;8.370;2023-04-01T20:59:11;11.30;92.20
20487;DHT22;10402;49.012;8.370;2023-04-01T21:01:51;11.30;92.10
20487;DHT22;10402;49.012;8.370;2023-04-01T21:21:24;11.20;92.10
20487;DHT22;10402;49.012;8.370;2023-04-01T21:24:28;11.20;92.10
20487;DHT22;10402;49.012;8.370;2023-04-01T21:29:42;11.20;92.20
20487;DHT22;10402;49.012;8.370;2023-04-01T21:46:21;11.20;92.20
20487;DHT22;10402;49.012;8.370;2023-04-01T21:51:49;11.10;92.20
20487;DHT22;10402;49.012;8.370;2023-04-01T22:09:08;11.10;92.00
20487;DHT22;10402;49.012;8.370;2023-04-01T22:11:53;11.20;92.10
20487;DHT22;10402;49.012;8.370;2023-04-01T22:14:31;11.20;92.00
20487;DHT22;10402;49.012;8.370;2023-04-01T22:17:03;11.10;92.00
20487;DHT22;10402;49.012;8.370;2023-04-01T22:22:22;11.10;92.00
20487;DHT22;10402;49.012;8.370;2023-04-01T22:25:00;11.20;92.00
20487;DHT22;10402;49.012;8.370;2023-04-01T22:32:46;11.20;91.90
20487;DHT22;10402;49.012;8.370;2023-04-01T22:43:17;11.20;91.70
20487;DHT22;10402;49.012;8.370;2023-04-01T22:54:43;11.10;91.70
20487;DHT22;10402;49.012;8.370;2023-04-01T22:57:16;11.10;91.60
20487;DHT22;10402;49.012;8.370;2023-04-01T22:59:48;11.10;91.70
20487;DHT22;10402;49.012;8.370;2023-04-01T23:02:21;11.10;91.70
20487;DHT22;10402;49.012;8.370;2023-04-01T23:04:53;11.10;91.70
20487;DHT22;10402;49.012;8.370;2023-04-01T23:09:53;11.00;91.70
20487;DHT22;10402;49.012;8.370;2023-04-01T23:12:21;11.10;92.10
20487;DHT22;10402;49.012;8.370;2023-04-01T23:14:49;11.00;91.70
20487;DHT22;10402;49.012;8.370;2023-04-01T23:17:34;11.00;91.80
20487;DHT22;10402;49.012;8.370;2023-04-01T23:22:56;11.10;91.70
20487;DHT22;10402;49.012;8.370;2023-04-01T23:25:43;11.00;91.70
20487;DHT22;10402;49.012;8.370;2023-04-01T23:28:39;11.00;91.70
20487;DHT22;10402;49.012;8.370;2023-04-01T23:34:01;11.00;91.60
20487;DHT22;10402;49.012;8.370;2023-04-01T23:36:28;11.00;91.70
20487;DHT22;10402;49.012;8.370;2023-04-01T23:38:55;11.00;91.70
20487;DHT22;10402;49.012;8.370;2023-04-01T23:41:31;10.90;91.70
20487;DHT22;10402;49.012;8.370;2023-04-01T23:44:04;11.00;91.80
20487;DHT22;10402;49.012;8.370;2023-04-01T23:46:32;11.00;91.80
20487;DHT22;10402;49.012;8.370;2023-04-01T23:49:00;11.00;91.80
20487;DHT22;10402;49.012;8.370;2023-04-01T23:51:37;11.00;91.70
20487;DHT22;10402;49.012;8.370;2023-04-01T23:54:33;11.00;91.80
20487;DHT22;10402;49.012;8.370;2023-04-01T23:56:59;10.90;91.80
20487;DHT22;10402;49.012;8.370;2023-04-01T23:59:30;10.90;91.80
